Time;durP1;ratioP1;P1;durP2;ratioP2;P2;SDS_P1;SDS_P2;PMS_P1;PMS_P2;Temp;Humidity;BMP_temperature;BMP_pressure;BME280_temperature;BME280_humidity;BME280_pressure;Samples;Min_cycle;Max_cycle;Signal;HPM_P1;HPM_P2
2022/12/06 00:01:31;;;;;;;26.90;9.40;;;;;;;4.26;100.00;101953.47;4876483;29;20516;-77
2022/12/06 00:04:00;;;;;;;21.95;9.25;;;;;;;4.23;100.00;101956.19;4880697;29;20104;-77
2022/12/06 00:06:28;;;;;;;22.80;9.35;;;;;;;4.25;100.00;101955.22;4886846;29;20041;-78
2022/12/06 00:08:54;;;;;;;23.60;10.30;;;;;;;4.28;100.00;101960.47;4882762;29;20048;-78
2022/12/06 00:11:22;;;;;;;26.15;9.73;;;;;;;4.18;100.00;101956.25;4880592;29;20053;-77
2022/12/06 00:13:52;;;;;;;22.63;9.07;;;;;;;4.21;100.00;101956.19;4876896;29;20059;-77
2022/12/06 00:16:18;;;;;;;26.65;11.35;;;;;;;4.18;100.00;101953.63;4879177;29;20041;-77
2022/12/06 00:18:45;;;;;;;24.73;10.82;;;;;;;4.20;100.00;101951.81;4879377;29;20112;-78
2022/12/06 00:21:23;;;;;;;28.02;9.52;;;;;;;4.24;100.00;101950.88;4879376;29;20054;-78
2022/12/06 00:23:51;;;;;;;25.17;10.07;;;;;;;4.16;100.00;101955.41;4875512;29;20581;-76
2022/12/06 00:26:18;;;;;;;26.63;9.73;;;;;;;4.14;100.00;101944.03;4873453;29;20044;-76
2022/12/06 00:28:44;;;;;;;24.02;9.15;;;;;;;4.14;100.00;101951.94;4883205;29;20045;-77
2022/12/06 00:31:18;;;;;;;26.40;9.90;;;;;;;4.11;100.00;101950.22;4881186;29;20474;-77
2022/12/06 00:33:43;;;;;;;20.70;9.52;;;;;;;4.21;100.00;101937.72;4895569;29;20750;-77
2022/12/06 00:36:12;;;;;;;23.08;9.60;;;;;;;4.14;100.00;101954.56;4875767;29;20037;-78
2022/12/06 00:38:38;;;;;;;25.67;9.35;;;;;;;4.21;100.00;101947.41;4879194;29;20092;-77
2022/12/06 00:41:10;;;;;;;25.38;9.23;;;;;;;4.15;100.00;101949.25;4878457;29;20057;-77
2022/12/06 00:43:36;;;;;;;21.48;8.40;;;;;;;4.19;100.00;101943.94;4881055;29;20052;-77
2022/12/06 00:46:04;;;;;;;17.50;9.18;;;;;;;4.20;100.00;101945.66;4877519;29;20553;-78
2022/12/06 00:48:29;;;;;;;21.70;8.05;;;;;;;4.14;100.00;101942.25;4880790;29;20672;-78
2022/12/06 00:50:58;;;;;;;21.20;9.40;;;;;;;4.16;100.00;101950.13;4877935;29;20048;-77
2022/12/06 00:53:24;;;;;;;32.38;10.15;;;;;;;4.17;100.00;101949.25;4880903;29;20503;-76
2022/12/06 00:55:50;;;;;;;21.52;10.07;;;;;;;4.20;100.00;101948.31;4873029;29;20040;-77
2022/12/06 00:58:16;;;;;;;29.25;9.55;;;;;;;4.23;100.00;101953.53;4873511;29;20056;-78
2022/12/06 01:00:42;;;;;;;20.85;8.73;;;;;;;4.22;100.00;101950.03;4880730;29;20044;-75
2022/12/06 01:03:08;;;;;;;23.75;9.43;;;;;;;4.23;100.00;101946.50;4872097;29;20067;-78
2022/12/06 01:05:46;;;;;;;25.08;9.85;;;;;;;4.18;100.00;101944.84;4871833;29;20059;-77
2022/12/06 01:08:12;;;;;;;25.33;8.50;;;;;;;4.16;100.00;101943.06;4877111;29;20049;-77
2022/12/06 01:10:38;;;;;;;27.35;10.05;;;;;;;4.20;100.00;101941.25;4875123;29;20052;-78
2022/12/06 01:13:04;;;;;;;35.72;10.85;;;;;;;4.16;100.00;101944.84;4878245;29;20649;-79
2022/12/06 01:15:31;;;;;;;25.00;9.02;;;;;;;4.13;100.00;101937.00;4886461;29;20070;-77
2022/12/06 01:17:57;;;;;;;29.05;9.63;;;;;;;4.16;100.00;101947.50;4883122;29;20028;-76
2022/12/06 01:20:22;;;;;;;28.67;10.32;;;;;;;4.16;100.00;101952.75;4878655;29;20661;-76
2022/12/06 01:22:48;;;;;;;28.30;9.75;;;;;;;4.27;100.00;101949.94;4880917;29;20156;-80
2022/12/06 01:25:13;;;;;;;32.90;12.32;;;;;;;4.26;100.00;101953.47;4882622;29;20733;-74
2022/12/06 01:27:38;;;;;;;24.95;9.68;;;;;;;4.26;100.00;101956.97;4886534;29;20036;-76
2022/12/06 01:30:05;;;;;;;33.90;12.23;;;;;;;4.31;100.00;101948.97;4885916;29;20103;-78
2022/12/06 01:32:30;;;;;;;27.60;10.30;;;;;;;4.32;100.00;101951.59;4882403;29;20504;-77
2022/12/06 01:34:56;;;;;;;33.30;11.02;;;;;;;4.42;100.00;101952.28;4882963;29;20033;-76
2022/12/06 01:37:21;;;;;;;28.52;10.88;;;;;;;4.38;100.00;101954.09;4878430;29;20037;-77
2022/12/06 01:39:47;;;;;;;29.42;10.40;;;;;;;4.41;100.00;101956.66;4884246;29;20041;-78
2022/12/06 01:42:13;;;;;;;32.13;11.23;;;;;;;4.38;100.00;101953.25;4879590;29;20097;-78
2022/12/06 01:44:45;;;;;;;21.77;9.70;;;;;;;4.43;100.00;101950.50;4885516;29;21059;-77
2022/12/06 01:47:17;;;;;;;25.38;9.73;;;;;;;4.39;100.00;101950.56;4879673;29;20482;-75
2022/12/06 01:49:47;;;;;;;26.17;10.00;;;;;;;4.45;100.00;101951.34;4875563;29;20052;-77
2022/12/06 01:52:13;;;;;;;26.92;8.68;;;;;;;4.30;100.00;101945.44;4880532;29;20084;-78
2022/12/06 01:54:39;;;;;;;25.08;9.13;;;;;;;4.40;100.00;101948.78;4888062;29;20042;-77
2022/12/06 01:57:12;;;;;;;23.13;8.77;;;;;;;4.33;100.00;101936.63;4897566;29;20482;-78
2022/12/06 01:59:39;;;;;;;26.55;11.13;;;;;;;4.38;100.00;101943.53;4884848;29;20032;-78
2022/12/06 02:02:04;;;;;;;34.55;10.00;;;;;;;4.41;100.00;101942.59;4882044;29;20093;-78
2022/12/06 02:04:30;;;;;;;25.77;9.57;;;;;;;4.35;100.00;101943.59;4881467;29;20048;-74
2022/12/06 02:06:58;;;;;;;24.48;9.52;;;;;;;4.38;100.00;101932.13;4878742;29;20049;-78
2022/12/06 02:09:26;;;;;;;26.73;10.10;;;;;;;4.41;100.00;101935.53;4878026;29;20048;-75
2022/12/06 02:11:51;;;;;;;28.08;10.30;;;;;;;4.46;100.00;101934.59;4881527;29;20047;-75
2022/12/06 02:14:21;;;;;;;30.40;10.43;;;;;;;4.36;100.00;101937.41;4879051;29;20053;-76
2022/12/06 02:17:39;;;;;;;24.17;10.07;;;;;;;4.40;100.00;101932.94;4882000;29;20127;-78
2022/12/06 02:20:10;;;;;;;29.02;11.02;;;;;;;4.31;100.00;101927.84;4821484;29;20062;-78
2022/12/06 02:22:52;;;;;;;33.72;10.65;;;;;;;4.40;100.00;101930.31;4823758;29;20046;-77
2022/12/06 02:25:54;;;;;;;26.95;10.00;;;;;;;4.39;100.00;101932.06;4831734;29;20110;-75
2022/12/06 02:29:04;;;;;;;25.75;10.10;;;;;;;4.42;100.00;101923.25;4828132;29;20128;-77
2022/12/06 02:31:37;;;;;;;30.02;10.75;;;;;;;4.40;100.00;101930.31;4820018;29;20077;-78
2022/12/06 02:34:28;;;;;;;38.50;11.55;;;;;;;4.42;100.00;101928.53;4824201;29;20042;-77
2022/12/06 02:37:06;;;;;;;27.90;10.57;;;;;;;4.44;100.00;101931.13;4818333;29;20074;-76
2022/12/06 02:39:41;;;;;;;29.77;10.02;;;;;;;4.39;100.00;101920.66;4790857;29;20053;-78
2022/12/06 02:42:24;;;;;;;26.48;10.30;;;;;;;4.44;100.00;101926.69;4816980;29;20145;-76
2022/12/06 02:44:55;;;;;;;24.60;10.77;;;;;;;4.48;100.00;101920.47;4816930;29;20051;-77
2022/12/06 02:47:24;;;;;;;25.77;10.73;;;;;;;4.48;100.00;101922.25;4819026;29;20587;-78
2022/12/06 02:49:53;;;;;;;32.15;11.32;;;;;;;4.51;100.00;101922.16;4830909;29;20416;-79
2022/12/06 02:52:25;;;;;;;33.95;9.60;;;;;;;4.43;100.00;101926.75;4829491;29;20792;-78
2022/12/06 02:54:54;;;;;;;34.30;10.75;;;;;;;4.48;100.00;101923.09;4836209;29;20861;-78
2022/12/06 02:57:33;;;;;;;29.45;10.48;;;;;;;4.47;100.00;101925.75;4877065;29;20046;-78
2022/12/06 02:59:59;;;;;;;26.50;10.80;;;;;;;4.44;100.00;101917.91;4886565;29;20048;-77
2022/12/06 03:02:25;;;;;;;26.40;9.77;;;;;;;4.51;100.00;101917.75;4875970;29;20053;-77
2022/12/06 03:04:59;;;;;;;35.83;11.18;;;;;;;4.41;100.00;101927.63;4895321;29;20032;-78
2022/12/06 03:07:49;;;;;;;30.42;10.70;;;;;;;4.48;100.00;101920.47;4878266;29;20039;-77
2022/12/06 03:10:36;;;;;;;28.63;10.25;;;;;;;4.48;100.00;101920.47;4879912;29;20160;-78
2022/12/06 03:13:17;;;;;;;26.45;10.02;;;;;;;4.51;100.00;101917.75;4873002;29;20044;-75
2022/12/06 03:15:58;;;;;;;31.38;10.48;;;;;;;4.47;100.00;101918.72;4875685;29;20044;-77
2022/12/06 03:18:41;;;;;;;31.92;10.00;;;;;;;4.58;100.00;101911.44;4876511;29;20052;-79
2022/12/06 03:21:25;;;;;;;27.48;10.35;;;;;;;4.56;100.00;101915.00;4880522;29;20076;-78
2022/12/06 03:23:50;;;;;;;29.48;11.20;;;;;;;4.48;100.00;101919.59;4883888;29;20068;-77
2022/12/06 03:26:21;;;;;;;34.65;10.70;;;;;;;4.47;100.00;101916.09;4876949;29;20489;-77
2022/12/06 03:28:50;;;;;;;27.52;11.48;;;;;;;4.52;100.00;101922.16;4886443;29;20032;-77
2022/12/06 03:31:15;;;;;;;26.20;11.40;;;;;;;4.42;100.00;101923.25;4885046;29;20040;-78
2022/12/06 03:33:55;;;;;;;29.88;10.88;;;;;;;4.38;100.00;101919.78;4885085;29;20135;-76
2022/12/06 03:36:22;;;;;;;25.60;9.70;;;;;;;4.47;100.00;101921.38;4878417;29;20061;-77
2022/12/06 03:38:59;;;;;;;32.10;12.10;;;;;;;4.47;100.00;101917.84;4879732;29;20052;-74
2022/12/06 03:41:29;;;;;;;30.23;11.88;;;;;;;4.51;100.00;101915.09;4877303;29;20098;-76
2022/12/06 03:43:56;;;;;;;35.95;9.77;;;;;;;4.45;100.00;101912.59;4880026;29;20100;-77
2022/12/06 03:46:40;;;;;;;31.20;10.88;;;;;;;4.54;100.00;101907.13;4888089;29;20048;-78
2022/12/06 03:49:27;;;;;;;27.50;10.23;;;;;;;4.51;100.00;101908.94;4886479;29;20100;-77
2022/12/06 03:51:53;;;;;;;25.67;8.75;;;;;;;4.39;100.00;101904.81;4874193;29;20032;-77
2022/12/06 03:54:18;;;;;;;28.40;9.68;;;;;;;4.38;100.00;101903.94;4875358;29;20790;-76
2022/12/06 03:56:44;;;;;;;27.95;9.77;;;;;;;4.46;100.00;101900.25;4879256;29;20036;-77
2022/12/06 03:59:10;;;;;;;28.17;9.23;;;;;;;4.52;100.00;101902.75;4878989;29;20059;-78
2022/12/06 04:01:37;;;;;;;23.90;10.07;;;;;;;4.54;100.00;101907.13;4876197;29;20045;-77
2022/12/06 04:04:03;;;;;;;29.02;9.07;;;;;;;4.46;100.00;101908.19;4879390;29;20191;-77
2022/12/06 04:06:28;;;;;;;28.33;9.18;;;;;;;4.40;100.00;101904.75;4876055;29;20489;-78
2022/12/06 04:09:51;;;;;;;23.10;9.77;;;;;;;4.37;100.00;101907.47;4877878;29;20120;-76
2022/12/06 04:11:39;;;;;;;31.33;9.65;;;;;;;4.39;100.00;101903.03;4879524;29;20048;-78
2022/12/06 04:14:05;;;;;;;29.52;9.75;;;;;;;4.45;100.00;101903.81;4880575;29;20048;-76
2022/12/06 04:19:14;;;;;;;32.60;11.38;;;;;;;4.35;100.00;101905.75;4881768;29;20157;-77
2022/12/06 04:24:23;;;;;;;27.65;9.32;;;;;;;4.26;100.00;101905.94;4874554;29;20128;-77
2022/12/06 04:26:49;;;;;;;23.50;8.82;;;;;;;4.30;100.00;101907.63;4877472;29;20044;-77
2022/12/06 04:40:12;;;;;;;23.27;8.63;;;;;;;4.19;100.00;101912.25;4875245;29;20470;-76
2022/12/06 04:45:21;;;;;;;31.13;10.20;;;;;;;4.25;100.00;101909.50;4878455;29;20040;-79
2022/12/06 04:47:46;;;;;;;26.88;9.82;;;;;;;4.13;100.00;101905.34;4874674;29;20112;-75
2022/12/06 04:50:12;;;;;;;24.40;8.65;;;;;;;4.15;100.00;101907.03;4872240;29;20048;-74
2022/12/06 04:52:38;;;;;;;26.00;8.88;;;;;;;4.08;100.00;101905.41;4877630;29;20049;-78
2022/12/06 04:55:04;;;;;;;30.50;9.98;;;;;;;4.20;100.00;101900.78;4870774;29;20079;-76
2022/12/06 04:57:29;;;;;;;18.92;8.32;;;;;;;4.22;100.00;101901.63;4874013;29;20064;-76
2022/12/06 04:59:55;;;;;;;41.22;9.40;;;;;;;4.26;100.00;101901.53;4878833;29;20769;-77
2022/12/06 05:02:20;;;;;;;28.15;8.40;;;;;;;4.22;100.00;101906.91;4882286;29;20048;-76
2022/12/06 05:04:46;;;;;;;21.15;7.85;;;;;;;4.27;100.00;101907.72;4878914;29;20037;-78
2022/12/06 05:07:11;;;;;;;21.17;8.10;;;;;;;4.22;100.00;101906.91;4875476;29;20656;-77
2022/12/06 05:09:37;;;;;;;21.25;8.63;;;;;;;4.29;100.00;101898.84;4884757;29;20097;-75
2022/12/06 05:12:03;;;;;;;17.63;7.80;;;;;;;4.24;100.00;101899.84;4877841;29;20215;-76
2022/12/06 05:14:28;;;;;;;20.27;7.97;;;;;;;4.28;100.00;101904.16;4881604;29;20096;-76
2022/12/06 05:16:54;;;;;;;22.52;7.90;;;;;;;4.27;100.00;101902.44;4882929;29;20045;-77
2022/12/06 05:19:19;;;;;;;21.75;7.75;;;;;;;4.24;100.00;101905.13;4879234;29;20633;-76
2022/12/06 05:21:46;;;;;;;23.33;8.27;;;;;;;4.24;100.00;101899.84;4882238;29;20044;-76
2022/12/06 05:24:11;;;;;;;18.15;6.80;;;;;;;4.16;100.00;101903.47;4876995;29;20112;-77
2022/12/06 05:26:36;;;;;;;21.70;7.88;;;;;;;4.14;100.00;101899.16;4879507;29;20048;-75
2022/12/06 05:29:02;;;;;;;15.85;6.50;;;;;;;4.14;100.00;101899.16;4881700;29;20121;-77
2022/12/06 05:31:28;;;;;;;18.73;7.20;;;;;;;4.15;100.00;101900.88;4886912;29;20128;-76
2022/12/06 05:33:53;;;;;;;17.52;6.93;;;;;;;4.19;100.00;101906.97;4878637;29;20867;-77
2022/12/06 05:36:24;;;;;;;20.98;7.25;;;;;;;4.13;100.00;101907.97;4865063;29;20051;-75
2022/12/06 05:38:51;;;;;;;22.02;6.65;;;;;;;4.15;100.00;101903.53;4883258;29;20158;-76
2022/12/06 05:41:17;;;;;;;15.57;5.85;;;;;;;4.15;100.00;101904.38;4879139;29;20052;-77
2022/12/06 05:43:43;;;;;;;17.80;6.13;;;;;;;4.20;100.00;101908.72;4883310;29;20459;-76
2022/12/06 05:46:08;;;;;;;24.52;7.20;;;;;;;4.20;100.00;101903.44;4879875;29;20045;-77
2022/12/06 05:48:34;;;;;;;16.80;6.60;;;;;;;4.25;100.00;101893.66;4876973;29;20061;-75
2022/12/06 05:50:59;;;;;;;17.42;7.22;;;;;;;4.19;100.00;101899.94;4878454;29;20052;-75
2022/12/06 05:53:25;;;;;;;16.85;7.47;;;;;;;4.19;100.00;101907.84;4872349;29;20045;-76
2022/12/06 05:55:50;;;;;;;22.35;7.03;;;;;;;4.14;100.00;101900.00;4876202;29;20402;-75
2022/12/06 05:58:17;;;;;;;22.83;7.70;;;;;;;4.13;100.00;101893.00;4884805;29;20048;-74
2022/12/06 06:00:50;;;;;;;25.33;7.72;;;;;;;4.13;100.00;101890.38;4879430;29;20478;-76
2022/12/06 06:03:15;;;;;;;;;;;;;;;4.14;100.00;101897.38;4878999;29;20109;-75
2022/12/06 06:05:49;;;;;;;15.10;5.93;;;;;;;4.15;100.00;101898.25;4874550;29;20121;-77
2022/12/06 06:08:16;;;;;;;20.85;6.90;;;;;;;4.21;100.00;101903.38;4873348;29;20060;-73
2022/12/06 06:10:41;;;;;;;21.23;7.28;;;;;;;4.21;100.00;101898.13;4883152;29;20065;-77
2022/12/06 06:13:07;;;;;;;22.92;6.60;;;;;;;4.14;100.00;101907.06;4882390;29;20048;-76
2022/12/06 06:15:33;;;;;;;16.20;6.22;;;;;;;4.19;100.00;101904.34;4882950;29;20052;-75
2022/12/06 06:17:58;;;;;;;15.65;6.65;;;;;;;4.22;100.00;101905.16;4887673;29;20049;-76
2022/12/06 06:20:23;;;;;;;19.60;6.90;;;;;;;4.23;100.00;101904.25;4884618;29;20036;-76
2022/12/06 06:22:49;;;;;;;19.55;5.95;;;;;;;4.20;100.00;101906.06;4885519;29;20053;-74
2022/12/06 06:25:14;;;;;;;18.25;6.00;;;;;;;4.20;100.00;101909.56;4887740;29;20109;-74
2022/12/06 06:27:40;;;;;;;22.15;5.65;;;;;;;4.22;100.00;101913.06;4883340;29;20033;-74
2022/12/06 06:30:08;;;;;;;14.70;5.72;;;;;;;4.18;100.00;101908.75;4884672;29;20647;-76
2022/12/06 06:32:34;;;;;;;21.25;6.43;;;;;;;4.19;100.00;101913.13;4883371;29;20055;-73
2022/12/06 06:35:00;;;;;;;19.42;6.20;;;;;;;4.14;100.00;101900.00;4888874;29;20414;-73
2022/12/06 06:37:26;;;;;;;21.25;6.70;;;;;;;4.14;100.00;101905.28;4883373;29;20032;-76
2022/12/06 06:39:51;;;;;;;15.68;5.30;;;;;;;4.15;100.00;101914.06;4880447;29;20036;-74
2022/12/06 06:42:17;;;;;;;17.58;6.03;;;;;;;4.16;100.00;101906.13;4884679;29;20051;-75
2022/12/06 06:44:43;;;;;;;13.00;5.63;;;;;;;4.16;100.00;101910.53;4876181;29;20043;-76
2022/12/06 06:47:09;;;;;;;16.08;5.90;;;;;;;4.16;100.00;101911.41;4878429;29;20052;-76
2022/12/06 06:49:35;;;;;;;29.33;6.20;;;;;;;4.19;100.00;101905.19;4885809;29;20040;-74
2022/12/06 06:52:00;;;;;;;22.35;5.75;;;;;;;4.17;100.00;101909.66;4881969;29;20037;-77
2022/12/06 06:54:26;;;;;;;19.65;5.53;;;;;;;4.16;100.00;101910.53;4889584;29;20435;-75
2022/12/06 06:56:55;;;;;;;11.68;4.97;;;;;;;4.15;100.00;101906.16;4885717;29;20041;-75
2022/12/06 06:59:22;;;;;;;16.90;5.93;;;;;;;4.15;100.00;101914.94;4888516;29;20506;-74
2022/12/06 07:01:47;;;;;;;17.48;6.03;;;;;;;4.18;100.00;101908.75;4883394;29;20064;-75
2022/12/06 07:04:13;;;;;;;15.45;5.53;;;;;;;4.22;100.00;101910.44;4882946;29;20487;-76
2022/12/06 07:06:38;;;;;;;13.20;5.60;;;;;;;4.19;100.00;101905.19;4882327;29;20041;-75
2022/12/06 07:09:04;;;;;;;16.27;5.50;;;;;;;4.21;100.00;101911.31;4886448;29;20827;-76
2022/12/06 07:11:29;;;;;;;14.45;5.70;;;;;;;4.18;100.00;101913.16;4886251;29;20056;-76
2022/12/06 07:13:57;;;;;;;15.30;6.47;;;;;;;4.15;100.00;101907.03;4877827;29;20052;-76
2022/12/06 07:16:23;;;;;;;16.40;6.03;;;;;;;4.17;100.00;101912.31;4879822;29;20037;-76
2022/12/06 07:18:48;;;;;;;14.20;5.60;;;;;;;4.18;100.00;101903.47;4879918;29;20037;-75
2022/12/06 07:21:15;;;;;;;13.25;5.72;;;;;;;4.16;100.00;101907.91;4876399;29;20044;-73
2022/12/06 07:23:41;;;;;;;17.38;6.25;;;;;;;4.14;100.00;101913.22;4886861;29;20040;-76
2022/12/06 07:26:12;;;;;;;12.10;5.68;;;;;;;4.18;100.00;101911.41;4883714;29;20098;-75
2022/12/06 07:28:40;;;;;;;20.40;6.38;;;;;;;4.18;100.00;101903.47;4878758;29;20048;-76
2022/12/06 07:31:13;;;;;;;13.55;6.65;;;;;;;4.26;100.00;101912.09;4876734;29;20065;-76
2022/12/06 07:33:39;;;;;;;13.70;5.97;;;;;;;4.18;100.00;101902.59;4880411;29;20037;-77
2022/12/06 07:36:05;;;;;;;16.15;6.43;;;;;;;4.24;100.00;101907.75;4882286;29;20079;-76
2022/12/06 07:38:31;;;;;;;12.02;6.00;;;;;;;4.21;100.00;101908.66;4884281;29;20043;-76
2022/12/06 07:44:59;;;;;;;11.27;5.05;;;;;;;4.25;100.00;101915.63;4879140;29;20521;-76
2022/12/06 07:46:38;;;;;;;14.48;5.80;;;;;;;4.24;100.00;101918.31;4877003;29;20128;-74
2022/12/06 07:49:05;;;;;;;15.52;6.18;;;;;;;4.30;100.00;101912.91;4886218;29;20055;-75
2022/12/06 07:51:30;;;;;;;18.52;6.78;;;;;;;4.23;100.00;101920.09;4879488;29;20041;-75
2022/12/06 07:53:56;;;;;;;16.90;6.32;;;;;;;4.27;100.00;101915.63;4890281;29;20126;-77
2022/12/06 07:56:22;;;;;;;16.40;5.97;;;;;;;4.27;100.00;101913.00;4868628;29;20041;-76
2022/12/06 07:58:47;;;;;;;17.17;5.53;;;;;;;4.30;100.00;101920.81;4878808;29;20085;-75
2022/12/06 08:01:13;;;;;;;12.57;5.22;;;;;;;4.30;100.00;101915.56;4879618;29;20096;-76
2022/12/06 08:03:39;;;;;;;10.05;4.65;;;;;;;4.33;100.00;101920.78;4873020;29;20041;-75
2022/12/06 08:06:04;;;;;;;13.07;5.93;;;;;;;4.30;100.00;101919.06;4873379;29;20033;-74
2022/12/06 08:08:30;;;;;;;17.40;5.15;;;;;;;4.33;100.00;101911.09;4874632;29;20105;-75
2022/12/06 08:11:00;;;;;;;18.08;5.90;;;;;;;4.35;100.00;101917.19;4884213;29;20225;-77
2022/12/06 08:13:26;;;;;;;14.35;5.53;;;;;;;4.30;100.00;101916.41;4876830;29;20048;-76
2022/12/06 08:15:51;;;;;;;12.85;4.80;;;;;;;4.35;100.00;101921.59;4876683;29;20091;-75
2022/12/06 08:18:17;;;;;;;10.60;4.90;;;;;;;4.35;100.00;101917.19;4880221;29;20048;-76
2022/12/06 08:20:42;;;;;;;11.82;4.95;;;;;;;4.43;100.00;101916.19;4876800;29;20522;-74
2022/12/06 08:23:08;;;;;;;15.35;4.72;;;;;;;4.43;100.00;101930.25;4880129;29;20884;-75
2022/12/06 08:25:33;;;;;;;13.07;4.82;;;;;;;4.44;100.00;101928.47;4873535;29;20037;-74
2022/12/06 08:27:58;;;;;;;13.68;5.68;;;;;;;4.51;100.00;101930.94;4870730;29;20037;-76
2022/12/06 08:30:24;;;;;;;11.82;4.15;;;;;;;4.58;100.00;101929.06;4881669;29;20566;-74
2022/12/06 08:32:49;;;;;;;13.18;5.32;;;;;;;4.60;100.00;101924.59;4883424;29;20410;-74
2022/12/06 08:35:15;;;;;;;8.38;3.95;;;;;;;4.60;100.00;101921.97;4874574;29;20889;-75
2022/12/06 08:37:40;;;;;;;9.82;4.35;;;;;;;4.68;100.00;101931.47;4884238;29;20537;-75
2022/12/06 08:40:06;;;;;;;14.32;4.72;;;;;;;4.68;100.00;101931.47;4883403;29;20048;-75
2022/12/06 08:42:32;;;;;;;10.20;4.28;;;;;;;4.62;100.00;101933.38;4881252;29;20482;-74
2022/12/06 08:44:57;;;;;;;8.48;4.07;;;;;;;4.67;100.00;101927.09;4883512;29;20041;-75
2022/12/06 08:47:23;;;;;;;10.30;4.07;;;;;;;4.82;100.00;101930.28;4877413;29;20475;-74
2022/12/06 08:49:49;;;;;;;7.45;3.85;;;;;;;4.84;100.00;101925.84;4873769;29;20569;-75
2022/12/06 08:52:15;;;;;;;16.85;3.88;;;;;;;4.79;100.00;101925.09;4869403;29;20072;-75
2022/12/06 08:54:40;;;;;;;10.30;3.92;;;;;;;4.72;100.00;101927.00;4882389;29;20509;-75
2022/12/06 08:57:06;;;;;;;14.93;4.15;;;;;;;4.56;100.00;101931.72;4878806;29;20044;-75
2022/12/06 08:59:31;;;;;;;9.90;4.03;;;;;;;4.53;100.00;101930.94;4882122;29;20585;-75
2022/12/06 09:01:56;;;;;;;12.63;4.07;;;;;;;4.58;100.00;101937.00;4877247;29;20041;-75
2022/12/06 09:04:22;;;;;;;10.10;3.80;;;;;;;4.60;100.00;101936.03;4875571;29;20053;-75
2022/12/06 09:06:48;;;;;;;16.70;3.88;;;;;;;4.61;100.00;101937.78;4876511;29;20046;-75
2022/12/06 09:09:15;;;;;;;14.88;4.30;;;;;;;4.72;100.00;101937.56;4876162;29;20481;-73
2022/12/06 09:11:42;;;;;;;9.52;4.18;;;;;;;4.70;100.00;101934.06;4879685;29;20405;-74
2022/12/06 09:14:09;;;;;;;7.63;3.92;;;;;;;4.64;100.00;101934.22;4873992;29;20212;-73
2022/12/06 09:16:35;;;;;;;11.45;3.83;;;;;;;4.55;100.00;101935.25;4877573;29;20498;-75
2022/12/06 09:19:00;;;;;;;9.18;3.92;;;;;;;4.41;100.00;101940.81;4873919;29;20048;-76
2022/12/06 09:21:29;;;;;;;11.57;4.15;;;;;;;4.38;100.00;101940.03;4874756;29;20049;-73
2022/12/06 09:23:57;;;;;;;10.55;4.55;;;;;;;4.26;100.00;101935.84;4874951;29;20047;-74
2022/12/06 09:26:26;;;;;;;7.68;4.20;;;;;;;4.22;100.00;101939.47;4877953;29;20526;-74
2022/12/06 09:28:54;;;;;;;9.48;4.07;;;;;;;4.21;100.00;101939.47;4872900;29;20052;-73
2022/12/06 09:31:20;;;;;;;12.02;4.43;;;;;;;4.26;100.00;101937.63;4871210;29;20558;-73
2022/12/06 09:33:46;;;;;;;12.30;4.20;;;;;;;4.27;100.00;101944.66;4872598;29;20041;-74
2022/12/06 09:36:20;;;;;;;10.75;4.57;;;;;;;4.28;100.00;101947.28;4876508;29;20072;-74
2022/12/06 09:38:52;;;;;;;8.48;4.50;;;;;;;4.36;100.00;101947.09;4875410;29;20052;-74
2022/12/06 09:41:55;;;;;;;11.80;4.07;;;;;;;4.31;100.00;101943.69;4870382;29;20422;-74
2022/12/06 09:44:45;;;;;;;11.32;4.55;;;;;;;4.35;100.00;101948.88;4880396;29;20485;-75
2022/12/06 09:47:35;;;;;;;16.13;5.07;;;;;;;4.44;100.00;101950.47;4885753;29;20570;-74
2022/12/06 09:50:15;;;;;;;10.07;4.78;;;;;;;4.45;100.00;101946.91;4881642;29;20805;-73
2022/12/06 09:52:59;;;;;;;9.65;4.53;;;;;;;4.51;100.00;101945.94;4890021;29;20084;-73
2022/12/06 09:55:41;;;;;;;10.77;5.03;;;;;;;4.47;100.00;101950.41;4872690;29;20045;-74
2022/12/06 09:58:33;;;;;;;10.82;4.85;;;;;;;4.56;100.00;101946.69;4880074;29;20072;-74
2022/12/06 10:01:19;;;;;;;13.23;4.93;;;;;;;4.53;100.00;101941.50;4881910;29;20064;-74
2022/12/06 10:03:54;;;;;;;11.35;4.80;;;;;;;4.62;100.00;101934.25;4874474;29;20832;-74
2022/12/06 10:06:22;;;;;;;10.18;4.70;;;;;;;4.71;100.00;101924.38;4884546;29;20506;-75
2022/12/06 10:09:17;;;;;;;16.38;5.63;;;;;;;4.72;100.00;101928.75;4881071;29;20457;-74
2022/12/06 10:11:55;;;;;;;13.85;4.57;;;;;;;4.68;100.00;101918.28;4878353;29;20648;-73
2022/12/06 10:14:33;;;;;;;10.88;4.75;;;;;;;4.78;100.00;101918.94;4883829;29;20116;-74
2022/12/06 10:17:17;;;;;;;8.13;3.45;;;;;;;4.74;100.00;101914.63;4875057;29;20069;-73
2022/12/06 10:20:03;;;;;;;7.97;3.97;;;;;;;4.88;100.00;101915.19;4882441;29;20067;-74
2022/12/06 10:22:53;;;;;;;5.72;3.25;;;;;;;4.82;100.00;101917.97;4871784;29;20048;-75
2022/12/06 10:25:24;;;;;;;14.20;4.70;;;;;;;4.89;100.00;101918.69;4875024;29;20127;-76
2022/12/06 10:27:50;;;;;;;9.57;3.72;;;;;;;4.88;100.00;101916.97;4880402;29;20113;-75
2022/12/06 10:30:16;;;;;;;13.82;4.20;;;;;;;4.91;100.00;101915.09;4886885;29;20048;-75
2022/12/06 10:33:04;;;;;;;8.77;3.67;;;;;;;4.85;100.00;101917.03;4879584;29;20052;-74
2022/12/06 10:35:42;;;;;;;9.23;3.53;;;;;;;4.96;100.00;101914.13;4878130;29;20041;-73
2022/12/06 10:38:22;;;;;;;10.68;3.92;;;;;;;4.91;100.00;101915.09;4884415;29;20116;-75
2022/12/06 10:40:56;;;;;;;9.90;2.90;;;;;;;4.96;100.00;101911.50;4878140;29;20052;-72
2022/12/06 10:43:52;;;;;;;13.88;4.45;;;;;;;5.09;100.00;101913.81;4877498;29;20098;-72
2022/12/06 10:49:35;;;;;;;6.18;3.38;;;;;;;5.26;100.00;101908.13;4880807;29;20047;-75
2022/12/06 10:52:31;;;;;;;5.80;3.20;;;;;;;5.30;100.00;101909.78;4875417;29;20045;-74
2022/12/06 10:55:02;;;;;;;7.75;3.80;;;;;;;5.22;100.00;101910.88;4880613;29;20037;-75
2022/12/06 10:57:52;;;;;;;6.65;3.28;;;;;;;5.45;100.00;101913.84;4876337;29;20117;-75
2022/12/06 11:00:23;;;;;;;8.00;3.38;;;;;;;5.62;100.00;101908.09;4875225;29;20637;-74
2022/12/06 11:03:14;;;;;;;9.23;3.42;;;;;;;5.69;100.00;101915.00;4887812;29;20453;-73
2022/12/06 11:06:26;;;;;;;6.28;3.40;;;;;;;5.77;100.00;101906.84;4870998;29;20362;-75
2022/12/06 11:09:03;;;;;;;7.30;2.58;;;;;;;5.74;100.00;101897.22;4858066;29;20809;-74
2022/12/06 11:11:35;;;;;;;3.78;2.53;;;;;;;5.86;100.00;101898.66;4881026;29;20512;-75
2022/12/06 11:14:19;;;;;;;6.40;3.22;;;;;;;6.05;100.00;101894.66;4879853;29;20040;-74
2022/12/06 11:16:55;;;;;;;5.13;2.88;;;;;;;6.12;100.00;101900.63;4869908;29;20509;-74
2022/12/06 11:19:34;;;;;;;7.72;3.88;;;;;;;6.05;100.00;101904.38;4874737;29;20045;-75
2022/12/06 11:22:13;;;;;;;11.75;3.38;;;;;;;5.93;100.00;101900.28;4884205;29;20078;-76
2022/12/06 11:24:53;;;;;;;8.18;3.67;;;;;;;5.97;100.00;101892.22;4874108;29;20048;-74
2022/12/06 11:27:30;;;;;;;8.48;3.03;;;;;;;5.88;100.00;101888.94;4875495;29;20056;-75
2022/12/06 11:29:56;;;;;;;11.90;3.70;;;;;;;5.71;100.00;101884.06;4882478;29;20167;-74
2022/12/06 11:32:22;;;;;;;7.38;2.88;;;;;;;5.69;100.00;101884.13;4878985;29;20859;-75
2022/12/06 11:34:52;;;;;;;10.57;3.20;;;;;;;5.62;100.00;101881.66;4886020;29;20162;-73
2022/12/06 11:37:20;;;;;;;4.82;3.50;;;;;;;5.64;100.00;101885.16;4882681;29;20072;-74
2022/12/06 11:39:50;;;;;;;5.05;3.00;;;;;;;5.70;100.00;101883.19;4875972;29;20499;-74
2022/12/06 11:42:20;;;;;;;7.10;3.33;;;;;;;5.75;100.00;101884.84;4879647;29;20084;-76
2022/12/06 11:45:10;;;;;;;10.52;5.28;;;;;;;6.07;100.00;101876.94;4878281;29;20083;-74
2022/12/06 11:47:36;;;;;;;9.35;3.05;;;;;;;6.36;100.00;101873.44;4882409;29;20523;-74
2022/12/06 11:50:01;;;;;;;14.18;3.67;;;;;;;6.53;100.00;101874.75;4877850;29;20055;-74
2022/12/06 11:52:40;;;;;;;10.18;3.22;;;;;;;6.63;100.00;101863.81;4872011;29;20049;-73
2022/12/06 11:55:26;;;;;;;9.68;3.13;;;;;;;6.56;100.00;101864.03;4875228;29;20052;-74
2022/12/06 11:58:02;;;;;;;2.90;2.13;;;;;;;6.51;100.00;101865.97;4872839;29;20124;-76